createdAt,value
2018-11-28T00:01:53.014Z,0.70
2018-11-28T00:04:24.508Z,0.70
2018-11-28T00:06:55.995Z,0.67
2018-11-28T00:09:27.496Z,0.70
2018-11-28T00:11:59.292Z,0.80
2018-11-28T00:14:30.726Z,0.60
2018-11-28T00:17:02.176Z,0.60
2018-11-28T00:19:33.610Z,0.70
2018-11-28T00:22:05.253Z,0.60
2018-11-28T00:24:37.752Z,0.70
2018-11-28T00:27:09.252Z,0.60
2018-11-28T00:29:40.669Z,0.80
2018-11-28T00:32:12.174Z,0.70
2018-11-28T00:34:43.582Z,0.60
2018-11-28T00:37:14.965Z,0.80
2018-11-28T00:39:46.457Z,0.63
2018-11-28T00:42:17.892Z,0.70
2018-11-28T00:44:49.290Z,0.90
2018-11-28T00:47:20.712Z,0.60
2018-11-28T00:49:52.124Z,0.70
2018-11-28T00:52:23.597Z,0.70
2018-11-28T00:54:55.046Z,0.93
2018-11-28T00:57:26.481Z,0.67
2018-11-28T00:59:58.618Z,0.87
2018-11-28T01:02:30.040Z,1.00
2018-11-28T01:05:01.465Z,0.70
2018-11-28T01:07:32.884Z,0.80
2018-11-28T01:10:04.570Z,0.63
2018-11-28T01:12:36.008Z,0.77
2018-11-28T01:15:08.532Z,0.60
2018-11-28T01:17:39.995Z,0.90
2018-11-28T01:20:13.670Z,0.70
2018-11-28T01:22:45.294Z,0.80
2018-11-28T01:25:18.644Z,0.67
2018-11-28T01:27:50.201Z,0.90
2018-11-28T01:30:23.852Z,0.80
2018-11-28T01:32:55.300Z,0.80
2018-11-28T01:35:26.907Z,0.70
2018-11-28T01:37:58.845Z,0.77
2018-11-28T01:40:30.223Z,0.70
2018-11-28T01:43:01.635Z,0.83
2018-11-28T01:45:33.044Z,0.60
2018-11-28T01:48:04.475Z,0.90
2018-11-28T01:50:36.052Z,0.83
2018-11-28T01:53:07.548Z,0.60
2018-11-28T01:55:39.023Z,0.60
2018-11-28T01:58:11.235Z,0.80
2018-11-28T02:00:42.671Z,0.77
2018-11-28T02:03:14.121Z,0.70
2018-11-28T02:05:45.574Z,0.80
2018-11-28T02:08:17.343Z,0.80
2018-11-28T02:10:48.819Z,0.70
2018-11-28T02:13:20.247Z,0.73
2018-11-28T02:15:51.772Z,0.70
2018-11-28T02:18:23.223Z,1.00
2018-11-28T02:20:54.661Z,0.77
2018-11-28T02:23:26.202Z,0.60
2018-11-28T02:25:57.821Z,0.70
2018-11-28T02:28:29.251Z,0.70
2018-11-28T02:31:00.928Z,0.63
2018-11-28T02:33:32.423Z,0.70
2018-11-28T02:36:03.820Z,0.70
2018-11-28T02:38:35.360Z,0.70
2018-11-28T02:41:06.953Z,0.70
2018-11-28T02:43:38.386Z,0.80
2018-11-28T02:46:19.939Z,0.70
2018-11-28T02:48:51.357Z,0.70
2018-11-28T02:51:22.911Z,0.70
2018-11-28T02:53:54.389Z,0.60
2018-11-28T02:56:25.845Z,0.77
2018-11-28T02:58:57.427Z,1.00
2018-11-28T03:01:28.860Z,0.80
2018-11-28T03:04:00.346Z,0.80
2018-11-28T03:06:31.768Z,0.77
2018-11-28T03:09:03.540Z,1.20
2018-11-28T03:11:34.972Z,0.73
2018-11-28T03:14:06.519Z,1.00
2018-11-28T03:16:37.948Z,1.80
2018-11-28T03:19:09.618Z,1.37
2018-11-28T03:21:41.158Z,0.90
2018-11-28T03:24:12.620Z,1.13
2018-11-28T03:26:44.093Z,1.47
2018-11-28T03:29:15.506Z,1.80
2018-11-28T03:31:46.954Z,3.37
2018-11-28T03:34:18.423Z,4.37
2018-11-28T03:36:49.828Z,5.30
2018-11-28T03:39:21.249Z,4.70
2018-11-28T03:41:52.699Z,7.23
2018-11-28T03:44:24.203Z,5.60
2018-11-28T03:46:55.835Z,5.43
2018-11-28T03:49:27.278Z,5.43
2018-11-28T03:51:58.791Z,5.27
2018-11-28T03:54:30.519Z,5.03
2018-11-28T03:57:02.037Z,4.67
2018-11-28T03:59:33.497Z,5.50
2018-11-28T04:02:04.939Z,5.00
2018-11-28T04:04:37.156Z,5.00
2018-11-28T04:07:08.098Z,5.03
2018-11-28T04:09:39.585Z,5.40
2018-11-28T04:12:11.058Z,3.80
2018-11-28T04:14:42.596Z,4.23
2018-11-28T04:17:14.093Z,3.60
2018-11-28T04:19:45.816Z,4.17
2018-11-28T04:22:17.322Z,3.90
2018-11-28T04:24:49.372Z,3.10
2018-11-28T04:27:20.821Z,4.13
2018-11-28T04:29:54.157Z,3.10
2018-11-28T04:32:24.550Z,3.17
2018-11-28T04:34:56.060Z,2.10
2018-11-28T04:37:27.589Z,2.60
2018-11-28T04:39:59.100Z,2.47
2018-11-28T04:42:30.683Z,2.47
2018-11-28T04:45:02.257Z,2.33
2018-11-28T04:47:33.781Z,1.90
2018-11-28T04:50:05.426Z,1.83
2018-11-28T04:52:36.894Z,1.70
2018-11-28T04:55:13.994Z,2.33
2018-11-28T04:57:45.618Z,1.90
2018-11-28T05:00:20.044Z,1.53
2018-11-28T05:02:51.676Z,1.97
2018-11-28T05:05:25.137Z,2.20
2018-11-28T05:07:56.701Z,1.50
2018-11-28T05:10:30.510Z,1.80
2018-11-28T05:13:02.409Z,1.60
2018-11-28T05:15:34.978Z,1.97
2018-11-28T05:18:06.550Z,1.27
2018-11-28T05:20:38.283Z,4.23
2018-11-28T05:23:09.950Z,4.70
2018-11-28T05:25:42.438Z,10.70
2018-11-28T05:28:14.291Z,10.30
2018-11-28T05:30:45.814Z,14.40
2018-11-28T05:33:23.026Z,10.40
2018-11-28T05:36:00.640Z,9.53
2018-11-28T05:38:32.915Z,8.93
2018-11-28T05:41:04.363Z,8.60
2018-11-28T05:43:35.845Z,7.00
2018-11-28T05:46:07.403Z,7.50
2018-11-28T05:48:38.862Z,6.93
2018-11-28T05:51:10.326Z,6.30
2018-11-28T05:53:41.774Z,6.80
2018-11-28T05:56:13.239Z,5.67
2018-11-28T05:58:44.896Z,5.80
2018-11-28T06:01:16.442Z,4.60
2018-11-28T06:03:47.956Z,4.93
2018-11-28T06:06:19.667Z,4.87
2018-11-28T06:08:51.138Z,4.10
2018-11-28T06:11:22.593Z,5.10
2018-11-28T06:13:54.085Z,4.90
2018-11-28T06:16:25.546Z,3.43
2018-11-28T06:18:57.499Z,3.87
2018-11-28T06:21:29.025Z,3.40
2018-11-28T06:24:00.710Z,3.60
2018-11-28T06:26:32.215Z,3.47
2018-11-28T06:29:03.752Z,3.50
2018-11-28T06:31:35.237Z,3.40
2018-11-28T06:34:07.315Z,3.13
2018-11-28T06:36:38.838Z,3.50
2018-11-28T06:39:11.099Z,2.90
2018-11-28T06:41:42.676Z,3.07
2018-11-28T06:44:15.718Z,2.40
2018-11-28T06:46:47.193Z,2.43
2018-11-28T06:49:18.750Z,3.23
2018-11-28T06:51:50.231Z,2.60
2018-11-28T06:54:21.809Z,2.10
2018-11-28T06:56:53.277Z,1.93
2018-11-28T06:59:24.725Z,2.43
2018-11-28T07:01:56.165Z,2.57
2018-11-28T07:04:27.714Z,2.10
2018-11-28T07:06:59.219Z,2.50
2018-11-28T07:09:30.762Z,2.23
2018-11-28T07:12:02.298Z,2.70
2018-11-28T07:14:33.737Z,2.00
2018-11-28T07:17:05.219Z,1.87
2018-11-28T07:19:38.532Z,1.90
2018-11-28T07:22:11.405Z,4.73
2018-11-28T07:24:42.860Z,6.00
2018-11-28T07:27:14.771Z,5.37
2018-11-28T07:29:46.248Z,5.90
2018-11-28T07:32:18.617Z,5.30
2018-11-28T07:34:50.070Z,5.47
2018-11-28T07:37:21.588Z,5.80
2018-11-28T07:39:53.183Z,5.67
2018-11-28T07:42:24.648Z,5.03
2018-11-28T07:44:56.088Z,5.47
2018-11-28T07:47:27.529Z,4.63
2018-11-28T07:49:59.010Z,4.90
2018-11-28T07:52:30.495Z,6.53
2018-11-28T07:55:02.165Z,5.27
2018-11-28T07:57:33.912Z,4.60
2018-11-28T08:00:05.994Z,4.77
2018-11-28T08:02:37.785Z,4.10
2018-11-28T08:05:10.085Z,4.73
2018-11-28T08:07:41.600Z,4.60
2018-11-28T08:10:19.882Z,3.50
2018-11-28T08:12:52.504Z,3.50
2018-11-28T08:15:24.184Z,3.27
2018-11-28T08:17:56.188Z,3.97
2018-11-28T08:20:27.812Z,3.37
2018-11-28T08:22:59.516Z,3.47
2018-11-28T08:25:31.031Z,2.83
2018-11-28T08:28:02.541Z,3.43
2018-11-28T08:30:34.216Z,3.17
2018-11-28T08:33:05.912Z,3.00
2018-11-28T08:35:37.341Z,3.23
2018-11-28T08:38:08.927Z,2.40
2018-11-28T08:40:40.422Z,2.80
2018-11-28T08:43:11.874Z,2.70
2018-11-28T08:45:43.420Z,3.00
2018-11-28T08:48:20.575Z,3.00
2018-11-28T08:50:52.074Z,2.83
2018-11-28T08:53:23.561Z,2.60
2018-11-28T08:55:55.060Z,2.70
2018-11-28T08:58:26.549Z,2.40
2018-11-28T09:00:58.039Z,2.50
2018-11-28T09:03:29.554Z,2.50
2018-11-28T09:06:01.071Z,2.00
2018-11-28T09:08:32.511Z,2.13
2018-11-28T09:11:04.014Z,2.20
2018-11-28T09:13:35.501Z,2.13
2018-11-28T09:16:07.127Z,1.80
2018-11-28T09:18:38.634Z,1.47
2018-11-28T09:21:10.112Z,1.73
2018-11-28T09:23:41.636Z,1.97
2018-11-28T09:26:26.913Z,2.03
2018-11-28T09:28:58.467Z,1.53
2018-11-28T09:31:29.990Z,1.70
2018-11-28T09:34:01.579Z,1.83
2018-11-28T09:36:33.210Z,1.53
2018-11-28T09:39:06.030Z,1.63
2018-11-28T09:41:37.562Z,1.30
2018-11-28T09:44:09.456Z,1.87
2018-11-28T09:46:46.804Z,1.80
2018-11-28T09:49:18.486Z,2.50
2018-11-28T09:51:50.326Z,1.87
2018-11-28T09:54:26.465Z,1.90
2018-11-28T09:56:58.098Z,1.37
2018-11-28T09:59:29.706Z,1.53
2018-11-28T10:02:01.259Z,1.30
2018-11-28T10:04:33.449Z,1.63
2018-11-28T10:07:05.039Z,1.60
2018-11-28T10:09:36.737Z,1.53
2018-11-28T10:12:09.142Z,1.40
2018-11-28T10:14:40.851Z,1.60
2018-11-28T10:17:12.448Z,1.70
2018-11-28T10:19:44.305Z,1.70
2018-11-28T10:22:16.239Z,1.77
2018-11-28T10:24:48.110Z,1.50
2018-11-28T10:27:19.915Z,1.60
2018-11-28T10:29:51.620Z,1.60
2018-11-28T10:32:23.455Z,1.70
2018-11-28T10:34:55.233Z,1.60
2018-11-28T10:37:26.983Z,2.00
2018-11-28T10:39:58.694Z,2.03
2018-11-28T10:42:32.794Z,1.40
2018-11-28T10:45:04.600Z,1.80
2018-11-28T10:47:36.391Z,1.80
2018-11-28T10:50:10.087Z,1.77
2018-11-28T10:52:41.651Z,1.83
2018-11-28T10:55:15.016Z,2.67
2018-11-28T10:57:46.684Z,1.33
2018-11-28T11:00:26.007Z,1.80
2018-11-28T11:03:02.491Z,1.10
2018-11-28T11:05:39.018Z,1.87
2018-11-28T11:08:15.376Z,1.33
2018-11-28T11:10:51.654Z,1.53
2018-11-28T11:13:28.336Z,1.53
2018-11-28T11:16:00.864Z,1.47
2018-11-28T11:18:32.607Z,1.43
2018-11-28T11:21:04.354Z,1.70
2018-11-28T11:23:36.064Z,1.23
2018-11-28T11:26:07.925Z,1.77
2018-11-28T11:28:39.614Z,1.77
2018-11-28T11:31:11.406Z,1.40
2018-11-28T11:33:43.041Z,1.70
2018-11-28T11:36:15.876Z,1.53
2018-11-28T11:38:47.830Z,1.23
2018-11-28T11:41:19.498Z,1.20
2018-11-28T11:43:51.122Z,1.67
2018-11-28T11:46:22.817Z,2.40
2018-11-28T11:49:05.347Z,1.90
2018-11-28T11:51:51.197Z,1.50
2018-11-28T11:54:23.332Z,2.00
2018-11-28T11:56:54.983Z,2.27
2018-11-28T11:59:26.632Z,2.00
2018-11-28T12:01:58.291Z,1.20
2018-11-28T12:04:30.195Z,1.73
2018-11-28T12:07:02.508Z,2.20
2018-11-28T12:09:34.117Z,2.03
2018-11-28T12:12:06.333Z,1.83
2018-11-28T12:14:37.886Z,1.70
2018-11-28T12:17:09.489Z,2.10
2018-11-28T12:19:41.058Z,2.07
2018-11-28T12:22:12.812Z,2.07
2018-11-28T12:24:44.297Z,1.90
2018-11-28T12:27:15.771Z,1.77
2018-11-28T12:29:47.313Z,1.30
2018-11-28T12:32:19.022Z,1.80
2018-11-28T12:34:50.582Z,2.03
2018-11-28T12:37:22.433Z,2.37
2018-11-28T12:40:00.517Z,2.37
2018-11-28T12:42:32.175Z,1.90
2018-11-28T12:45:03.829Z,2.40
2018-11-28T12:47:35.521Z,1.60
2018-11-28T12:50:10.627Z,2.40
2018-11-28T12:52:42.219Z,2.03
2018-11-28T12:55:13.855Z,1.70
2018-11-28T12:57:45.534Z,1.93
2018-11-28T13:00:20.053Z,2.00
2018-11-28T13:02:51.766Z,2.60
2018-11-28T13:05:25.393Z,2.47
2018-11-28T13:07:56.993Z,2.30
2018-11-28T13:10:38.547Z,2.87
2018-11-28T13:13:12.657Z,3.03
2018-11-28T13:15:44.689Z,3.57
2018-11-28T13:18:18.394Z,3.40
2018-11-28T13:21:06.389Z,4.40
2018-11-28T13:23:45.505Z,3.33
2018-11-28T13:26:17.075Z,3.40
2018-11-28T13:28:48.715Z,3.40
2018-11-28T13:31:20.213Z,3.37
2018-11-28T13:33:51.695Z,3.50
2018-11-28T13:36:23.268Z,4.43
2018-11-28T13:38:54.853Z,4.10
2018-11-28T13:41:26.610Z,3.97
2018-11-28T13:43:58.239Z,4.33
2018-11-28T13:46:29.722Z,4.60
2018-11-28T13:49:01.223Z,4.27
2018-11-28T13:51:32.894Z,4.23
2018-11-28T13:54:20.758Z,4.47
2018-11-28T13:59:14.761Z,4.20
2018-11-28T14:01:46.439Z,5.87
2018-11-28T14:04:17.995Z,4.60
2018-11-28T14:06:49.806Z,4.10
2018-11-28T14:09:21.338Z,4.60
2018-11-28T14:11:52.906Z,4.50
2018-11-28T14:14:24.512Z,4.87
2018-11-28T14:16:56.032Z,4.50
2018-11-28T14:19:27.538Z,4.60
2018-11-28T14:21:59.340Z,4.80
2018-11-28T14:24:30.825Z,5.67
2018-11-28T14:27:02.388Z,5.30
2018-11-28T14:29:33.892Z,4.70
2018-11-28T14:32:05.400Z,6.07
2018-11-28T14:34:36.871Z,5.10
2018-11-28T14:37:09.026Z,4.83
2018-11-28T14:39:40.496Z,4.90
2018-11-28T14:42:12.119Z,5.30
2018-11-28T14:44:43.708Z,4.10
2018-11-28T14:47:15.253Z,5.77
2018-11-28T14:49:46.790Z,4.20
2018-11-28T14:52:18.282Z,4.67
2018-11-28T14:54:49.949Z,4.30
2018-11-28T14:57:21.558Z,5.00
2018-11-28T14:59:53.820Z,5.27
2018-11-28T15:02:25.330Z,4.37
2018-11-28T15:04:58.372Z,4.80
2018-11-28T15:07:29.892Z,4.67
2018-11-28T15:10:02.307Z,4.13
2018-11-28T15:12:34.038Z,4.80
2018-11-28T15:15:05.781Z,5.00
2018-11-28T15:17:37.318Z,5.07
2018-11-28T15:20:10.126Z,4.90
2018-11-28T15:22:41.619Z,5.40
2018-11-28T15:25:13.499Z,4.60
2018-11-28T15:27:45.048Z,5.67
2018-11-28T15:30:16.702Z,4.13
2018-11-28T15:32:48.274Z,5.07
2018-11-28T15:35:20.003Z,8.83
2018-11-28T15:37:51.556Z,9.67
2018-11-28T15:40:24.011Z,10.13
2018-11-28T15:42:55.778Z,8.70
2018-11-28T15:45:27.536Z,8.53
2018-11-28T15:47:59.097Z,9.47
2018-11-28T15:50:32.780Z,9.40
2018-11-28T15:53:05.321Z,9.97
2018-11-28T15:55:38.105Z,9.50
2018-11-28T15:58:11.369Z,8.70
2018-11-28T16:00:47.199Z,9.53
2018-11-28T16:03:18.946Z,9.07
2018-11-28T16:05:50.552Z,10.23
2018-11-28T16:08:22.087Z,9.27
2018-11-28T16:10:53.839Z,9.30
2018-11-28T16:13:25.841Z,9.13
2018-11-28T16:15:58.878Z,8.90
2018-11-28T16:18:30.344Z,9.57
2018-11-28T16:21:01.814Z,9.10
2018-11-28T16:23:35.131Z,8.77
2018-11-28T16:26:06.830Z,8.77
2018-11-28T16:28:38.672Z,8.60
2018-11-28T16:31:10.524Z,8.47
2018-11-28T16:33:42.417Z,9.40
2018-11-28T16:36:14.799Z,10.17
2018-11-28T16:38:47.344Z,8.70
2018-11-28T16:41:18.922Z,7.87
2018-11-28T16:43:50.741Z,8.50
2018-11-28T16:46:22.292Z,9.13
2018-11-28T16:48:54.494Z,8.03
2018-11-28T16:51:26.739Z,8.53
2018-11-28T16:53:58.243Z,8.37
2018-11-28T16:56:31.086Z,8.70
2018-11-28T16:59:03.214Z,8.20
2018-11-28T17:01:35.160Z,9.37
2018-11-28T17:04:07.234Z,9.90
2018-11-28T17:06:39.280Z,9.07
2018-11-28T17:09:11.531Z,8.63
2018-11-28T17:11:43.069Z,8.70
2018-11-28T17:14:17.846Z,8.80
2018-11-28T17:16:50.357Z,7.70
2018-11-28T17:19:22.328Z,8.40
2018-11-28T17:21:53.831Z,8.27
2018-11-28T17:24:25.409Z,8.27
2018-11-28T17:27:02.044Z,6.97
2018-11-28T17:29:33.979Z,7.30
2018-11-28T17:32:05.702Z,8.33
2018-11-28T17:34:37.221Z,7.70
2018-11-28T17:37:08.983Z,7.30
2018-11-28T17:39:40.502Z,7.10
2018-11-28T17:42:12.976Z,7.53
2018-11-28T17:44:44.879Z,6.80
2018-11-28T17:47:16.869Z,6.83
2018-11-28T17:49:50.328Z,8.03
2018-11-28T17:52:22.701Z,7.20
2018-11-28T17:54:54.977Z,6.70
2018-11-28T17:57:26.537Z,7.40
2018-11-28T17:59:59.018Z,6.93
2018-11-28T18:02:32.318Z,6.90
2018-11-28T18:05:03.911Z,6.33
2018-11-28T18:07:36.693Z,6.60
2018-11-28T18:10:12.605Z,6.73
2018-11-28T18:12:54.723Z,6.47
2018-11-28T18:15:27.196Z,6.87
2018-11-28T18:18:00.094Z,7.40
2018-11-28T18:20:32.746Z,6.60
2018-11-28T18:23:05.432Z,6.67
2018-11-28T18:25:38.283Z,6.80
2018-11-28T18:28:11.478Z,7.80
2018-11-28T18:30:45.086Z,6.97
2018-11-28T18:33:17.592Z,6.60
2018-11-28T18:35:50.782Z,6.63
2018-11-28T18:38:22.440Z,6.17
2018-11-28T18:40:54.907Z,6.37
2018-11-28T18:43:27.165Z,6.83
2018-11-28T18:46:00.547Z,7.60
2018-11-28T18:48:33.035Z,5.47
2018-11-28T18:51:06.205Z,6.80
2018-11-28T18:53:39.261Z,5.93
2018-11-28T18:56:11.524Z,6.83
2018-11-28T18:58:44.354Z,6.30
2018-11-28T19:01:16.971Z,6.37
2018-11-28T19:03:50.640Z,6.70
2018-11-28T19:06:25.248Z,6.97
2018-11-28T19:08:58.427Z,6.37
2018-11-28T19:11:30.212Z,5.87
2018-11-28T19:14:01.878Z,6.37
2018-11-28T19:16:37.873Z,5.53
2018-11-28T19:19:07.142Z,7.00
2018-11-28T19:21:40.239Z,6.33
2018-11-28T19:24:13.323Z,6.10
2018-11-28T19:26:45.918Z,6.60
2018-11-28T19:29:18.797Z,6.50
2018-11-28T19:31:51.793Z,6.20
2018-11-28T19:34:23.611Z,5.60
2018-11-28T19:36:55.428Z,6.17
2018-11-28T19:39:27.006Z,6.00
2018-11-28T19:41:58.592Z,5.97
2018-11-28T19:44:32.319Z,5.70
2018-11-28T19:47:06.197Z,5.20
2018-11-28T19:49:39.324Z,5.47
2018-11-28T19:52:12.503Z,6.23
2018-11-28T19:54:44.703Z,6.43
2018-11-28T19:57:16.360Z,6.70
2018-11-28T19:59:47.894Z,5.60
2018-11-28T20:02:19.499Z,5.73
2018-11-28T20:04:51.332Z,6.90
2018-11-28T20:07:23.471Z,5.43
2018-11-28T20:10:01.122Z,5.53
2018-11-28T20:12:33.456Z,5.87
2018-11-28T20:15:05.348Z,5.93
2018-11-28T20:17:37.135Z,5.50
2018-11-28T20:20:11.991Z,5.90
2018-11-28T20:22:43.764Z,6.10
2018-11-28T20:25:17.513Z,6.23
2018-11-28T20:27:57.579Z,5.63
2018-11-28T20:30:32.435Z,5.60
2018-11-28T20:33:06.169Z,5.83
2018-11-28T20:35:37.917Z,6.00
2018-11-28T20:38:11.707Z,6.53
2018-11-28T20:40:43.493Z,5.93
2018-11-28T20:43:15.458Z,5.40
2018-11-28T20:45:48.287Z,6.30
2018-11-28T20:48:22.888Z,5.27
2018-11-28T20:50:55.403Z,5.50
2018-11-28T20:53:28.945Z,6.33
2018-11-28T20:56:01.655Z,6.37
2018-11-28T20:58:41.009Z,5.60
2018-11-28T21:01:13.351Z,5.00
2018-11-28T21:03:47.238Z,5.53
2018-11-28T21:06:25.845Z,6.40
2018-11-28T21:08:59.400Z,5.97
2018-11-28T21:11:36.229Z,6.10
2018-11-28T21:14:07.835Z,5.97
2018-11-28T21:16:40.283Z,5.73
2018-11-28T21:19:11.976Z,5.60
2018-11-28T21:21:43.526Z,4.90
2018-11-28T21:24:17.769Z,6.00
2018-11-28T21:26:49.629Z,6.50
2018-11-28T21:29:21.230Z,5.83
2018-11-28T21:31:52.941Z,6.67
2018-11-28T21:34:24.757Z,5.93
2018-11-28T21:36:57.294Z,5.53
2018-11-28T21:39:29.229Z,5.20
2018-11-28T21:42:01.643Z,6.23
2018-11-28T21:44:33.930Z,6.00
2018-11-28T21:47:05.496Z,6.67
2018-11-28T21:49:37.041Z,6.03
2018-11-28T21:52:08.567Z,5.83
2018-11-28T21:54:40.235Z,5.67
2018-11-28T21:57:12.078Z,6.03
2018-11-28T21:59:43.696Z,5.60
2018-11-28T22:02:15.291Z,5.37
2018-11-28T22:04:46.852Z,5.93
2018-11-28T22:07:18.499Z,6.30
2018-11-28T22:09:50.060Z,5.30
2018-11-28T22:12:21.548Z,5.87
2018-11-28T22:14:53.130Z,6.30
2018-11-28T22:17:24.591Z,6.00
2018-11-28T22:20:02.019Z,6.80
2018-11-28T22:22:33.869Z,5.77
2018-11-28T22:25:06.348Z,6.03
2018-11-28T22:27:37.847Z,5.10
2018-11-28T22:30:11.398Z,5.53
2018-11-28T22:32:43.312Z,6.67
2018-11-28T22:35:14.918Z,6.23
2018-11-28T22:37:46.646Z,5.50
2018-11-28T22:40:33.033Z,6.10
2018-11-28T22:43:04.590Z,5.57
2018-11-28T22:45:36.715Z,6.10
2018-11-28T22:48:08.404Z,6.40
2018-11-28T22:50:40.762Z,5.10
2018-11-28T22:53:12.326Z,5.33
2018-11-28T22:55:43.986Z,5.70
2018-11-28T22:58:15.534Z,6.27
2018-11-28T23:00:51.935Z,5.93
2018-11-28T23:03:23.768Z,6.03
2018-11-28T23:05:55.269Z,6.10
2018-11-28T23:08:26.960Z,5.70
2018-11-28T23:10:58.614Z,6.10
2018-11-28T23:13:30.240Z,6.10
2018-11-28T23:16:01.721Z,6.77
2018-11-28T23:18:33.244Z,5.53
2018-11-28T23:21:05.006Z,5.33
2018-11-28T23:23:36.545Z,6.10
2018-11-28T23:26:08.255Z,6.00
2018-11-28T23:28:39.779Z,5.70
2018-11-28T23:31:11.328Z,5.90
2018-11-28T23:33:42.992Z,6.70
2018-11-28T23:36:14.566Z,6.10
2018-11-28T23:38:46.086Z,6.20
2018-11-28T23:41:18.485Z,6.00
2018-11-28T23:43:50.013Z,6.93
2018-11-28T23:46:21.527Z,6.00
2018-11-28T23:48:53.957Z,5.27
2018-11-28T23:51:25.575Z,6.00
2018-11-28T23:53:57.387Z,5.93
2018-11-28T23:56:28.954Z,6.70
2018-11-28T23:59:00.547Z,6.00
